createdAt,value
2023-05-05T00:02:54.087Z,53.38
2023-05-05T00:08:01.433Z,53.58
2023-05-05T00:13:08.689Z,53.73
2023-05-05T00:18:16.916Z,53.88
2023-05-05T00:23:24.021Z,54.04
2023-05-05T00:28:31.838Z,54.22
2023-05-05T00:33:39.105Z,54.40
2023-05-05T00:38:47.440Z,54.66
2023-05-05T00:43:54.698Z,54.93
2023-05-05T00:49:02.625Z,55.19
2023-05-05T00:54:09.869Z,55.45
2023-05-05T00:59:17.175Z,55.75
2023-05-05T01:04:24.717Z,56.11
2023-05-05T01:09:40.229Z,56.41
2023-05-05T01:14:54.790Z,56.59
2023-05-05T01:20:12.796Z,56.74
2023-05-05T01:25:51.424Z,56.88
2023-05-05T01:31:23.524Z,57.00
2023-05-05T01:36:38.194Z,57.24
2023-05-05T01:41:49.877Z,57.50
2023-05-05T01:46:59.994Z,57.83
2023-05-05T01:52:08.865Z,58.11
2023-05-05T01:57:17.113Z,58.30
2023-05-05T02:02:27.297Z,58.46
2023-05-05T02:07:36.321Z,58.60
2023-05-05T02:12:45.260Z,58.69
2023-05-05T02:17:55.204Z,58.76
2023-05-05T02:23:02.612Z,58.87
2023-05-05T02:28:15.124Z,58.95
2023-05-05T02:33:25.503Z,59.02
2023-05-05T02:38:34.587Z,59.11
2023-05-05T02:43:44.241Z,59.24
2023-05-05T02:48:51.790Z,59.38
2023-05-05T02:53:59.330Z,59.50
2023-05-05T02:59:16.619Z,59.61
2023-05-05T03:04:28.567Z,59.68
2023-05-05T03:09:43.477Z,59.82
2023-05-05T03:14:53.547Z,59.93
2023-05-05T03:20:03.462Z,60.08
2023-05-05T03:25:13.177Z,60.20
2023-05-05T03:30:21.488Z,60.34
2023-05-05T03:35:30.965Z,60.44
2023-05-05T03:40:44.107Z,60.58
2023-05-05T03:45:54.731Z,60.68
2023-05-05T03:51:02.356Z,60.84
2023-05-05T03:56:11.168Z,61.03
2023-05-05T04:01:18.541Z,61.30
2023-05-05T04:06:26.384Z,61.54
2023-05-05T04:11:35.419Z,62.94
2023-05-05T04:16:42.996Z,64.24
2023-05-05T04:21:51.565Z,64.64
2023-05-05T04:26:58.830Z,64.76
2023-05-05T04:32:07.666Z,64.79
2023-05-05T04:37:15.191Z,64.74
2023-05-05T04:42:22.491Z,64.71
2023-05-05T04:47:30.282Z,64.59
2023-05-05T04:52:38.124Z,64.47
2023-05-05T04:57:45.448Z,64.45
2023-05-05T05:02:52.869Z,64.64
2023-05-05T05:08:00.169Z,64.76
2023-05-05T05:13:07.462Z,64.77
2023-05-05T05:18:16.074Z,64.67
2023-05-05T05:23:23.442Z,64.61
2023-05-05T05:28:31.630Z,64.60
2023-05-05T05:33:39.072Z,64.53
2023-05-05T05:38:46.685Z,64.32
2023-05-05T05:43:54.221Z,64.29
2023-05-05T05:49:04.320Z,64.21
2023-05-05T05:54:11.889Z,63.95
2023-05-05T05:59:19.898Z,63.78
2023-05-05T06:04:27.272Z,63.84
2023-05-05T06:09:35.648Z,63.87
2023-05-05T06:14:43.116Z,63.76
2023-05-05T06:19:54.078Z,63.41
2023-05-05T06:25:02.255Z,63.07
2023-05-05T06:30:11.936Z,62.89
2023-05-05T06:35:19.379Z,62.78
2023-05-05T06:40:26.692Z,62.71
2023-05-05T06:45:35.025Z,62.14
2023-05-05T06:50:42.713Z,61.46
2023-05-05T06:55:50.756Z,60.90
2023-05-05T07:00:58.153Z,60.80
2023-05-05T07:06:05.624Z,60.54
2023-05-05T07:11:13.057Z,60.35
2023-05-05T07:16:20.397Z,59.94
2023-05-05T07:21:28.009Z,58.49
2023-05-05T07:26:35.657Z,57.61
2023-05-05T07:31:42.997Z,57.72
2023-05-05T07:36:50.311Z,58.21
2023-05-05T07:41:58.033Z,58.36
2023-05-05T07:47:05.175Z,58.53
2023-05-05T07:52:12.897Z,58.56
2023-05-05T07:57:20.368Z,58.50
2023-05-05T08:02:27.695Z,58.36
2023-05-05T08:07:36.852Z,58.33
2023-05-05T08:12:44.137Z,58.00
2023-05-05T08:17:54.709Z,57.12
2023-05-05T08:23:01.971Z,56.17
2023-05-05T08:28:09.276Z,55.47
2023-05-05T08:33:16.751Z,54.88
2023-05-05T08:38:24.250Z,54.72
2023-05-05T08:43:31.495Z,54.64
2023-05-05T08:48:41.836Z,54.61
2023-05-05T08:53:58.581Z,54.32
2023-05-05T08:59:06.404Z,53.80
2023-05-05T09:04:13.983Z,53.35
2023-05-05T09:09:21.993Z,53.36
2023-05-05T09:20:08.229Z,52.89
2023-05-05T09:25:16.962Z,52.91
2023-05-05T09:30:28.308Z,52.57
2023-05-05T09:35:52.372Z,52.52
2023-05-05T09:40:59.648Z,52.65
2023-05-05T09:46:13.461Z,52.23
2023-05-05T09:51:32.252Z,52.17
2023-05-05T09:56:43.259Z,51.79
2023-05-05T10:01:51.036Z,51.58
2023-05-05T10:06:59.204Z,51.18
2023-05-05T10:12:07.679Z,50.65
2023-05-05T10:17:17.156Z,50.77
2023-05-05T10:22:26.993Z,50.75
2023-05-05T10:27:41.706Z,50.50
2023-05-05T10:33:00.899Z,49.84
2023-05-05T10:38:16.799Z,49.84
2023-05-05T10:43:25.170Z,49.71
2023-05-05T10:48:37.824Z,49.32
2023-05-05T10:53:53.934Z,49.18
2023-05-05T10:59:01.965Z,49.29
2023-05-05T11:04:22.840Z,49.36
2023-05-05T11:09:33.639Z,48.95
2023-05-05T11:14:40.827Z,48.30
2023-05-05T11:19:52.633Z,48.37
2023-05-05T11:24:59.775Z,48.44
2023-05-05T11:30:12.425Z,47.90
2023-05-05T11:35:19.872Z,47.66
2023-05-05T11:40:33.131Z,47.44
2023-05-05T11:45:40.809Z,47.30
2023-05-05T11:50:48.202Z,46.56
2023-05-05T11:56:10.251Z,46.21
2023-05-05T12:01:18.302Z,46.08
2023-05-05T12:06:25.638Z,45.75
2023-05-05T12:11:33.034Z,45.42
2023-05-05T12:16:40.230Z,45.34
2023-05-05T12:21:49.124Z,45.49
2023-05-05T12:26:56.469Z,45.47
2023-05-05T12:32:03.807Z,45.35
2023-05-05T12:37:11.094Z,45.05
2023-05-05T12:42:18.683Z,44.60
2023-05-05T12:47:37.110Z,44.69
2023-05-05T12:52:46.881Z,44.53
2023-05-05T12:58:06.144Z,44.10
2023-05-05T13:03:23.636Z,44.16
2023-05-05T13:08:47.145Z,44.41
2023-05-05T13:13:54.655Z,44.31
2023-05-05T13:19:01.436Z,43.56
2023-05-05T13:24:23.411Z,43.17
2023-05-05T13:29:33.641Z,43.12
2023-05-05T13:34:40.913Z,43.01
2023-05-05T13:39:48.188Z,42.73
2023-05-05T13:44:56.003Z,42.25
2023-05-05T13:50:03.272Z,41.84
2023-05-05T13:55:12.177Z,41.35
2023-05-05T14:00:22.416Z,41.05
2023-05-05T14:05:30.870Z,40.83
2023-05-05T14:10:38.260Z,40.49
2023-05-05T14:15:45.811Z,40.41
2023-05-05T14:20:53.317Z,40.67
2023-05-05T14:26:00.540Z,40.75
2023-05-05T14:31:08.105Z,40.72
2023-05-05T14:36:15.892Z,40.40
2023-05-05T14:41:23.182Z,40.45
2023-05-05T14:46:30.703Z,40.30
2023-05-05T14:51:38.268Z,39.76
2023-05-05T14:56:45.801Z,39.37
2023-05-05T15:01:53.112Z,39.09
2023-05-05T15:07:00.741Z,38.87
2023-05-05T15:12:08.861Z,38.74
2023-05-05T15:17:16.368Z,38.65
2023-05-05T15:22:23.728Z,38.62
2023-05-05T15:27:32.251Z,38.52
2023-05-05T15:32:39.549Z,38.42
2023-05-05T15:37:47.497Z,38.12
2023-05-05T15:42:56.296Z,38.06
2023-05-05T15:48:03.988Z,38.02
2023-05-05T15:53:12.552Z,37.94
2023-05-05T15:58:20.121Z,37.74
2023-05-05T16:03:27.520Z,37.68
2023-05-05T16:08:35.133Z,37.53
2023-05-05T16:13:43.015Z,37.20
2023-05-05T16:18:50.357Z,37.02
2023-05-05T16:23:57.735Z,36.91
2023-05-05T16:29:05.212Z,36.78
2023-05-05T16:34:12.418Z,36.67
2023-05-05T16:39:19.824Z,36.58
2023-05-05T16:44:27.137Z,36.60
2023-05-05T16:49:34.373Z,36.58
2023-05-05T16:54:42.016Z,36.61
2023-05-05T16:59:49.782Z,36.62
2023-05-05T17:04:57.299Z,36.48
2023-05-05T17:10:05.334Z,36.35
2023-05-05T17:15:13.619Z,36.10
2023-05-05T17:20:21.204Z,35.90
2023-05-05T17:25:28.423Z,35.75
2023-05-05T17:30:35.552Z,35.72
2023-05-05T17:35:42.867Z,35.73
2023-05-05T17:40:51.028Z,35.83
2023-05-05T17:45:58.520Z,35.84
2023-05-05T17:51:05.949Z,35.89
2023-05-05T17:56:13.293Z,35.91
2023-05-05T18:01:27.241Z,36.01
2023-05-05T18:06:34.414Z,36.11
2023-05-05T18:11:42.608Z,36.26
2023-05-05T18:16:50.881Z,36.38
2023-05-05T18:21:58.768Z,36.53
2023-05-05T18:27:07.024Z,36.66
2023-05-05T18:32:14.274Z,36.70
2023-05-05T18:37:21.569Z,36.79
2023-05-05T18:42:28.808Z,36.93
2023-05-05T18:47:36.234Z,37.02
2023-05-05T18:52:43.923Z,37.17
2023-05-05T18:57:51.322Z,37.29
2023-05-05T19:02:59.729Z,37.42
2023-05-05T19:08:07.191Z,37.56
2023-05-05T19:13:14.752Z,37.65
2023-05-05T19:18:22.182Z,37.76
2023-05-05T19:23:29.581Z,37.94
2023-05-05T19:28:36.876Z,38.11
2023-05-05T19:33:46.052Z,38.26
2023-05-05T19:38:53.809Z,38.44
2023-05-05T19:44:01.552Z,38.59
2023-05-05T19:49:09.021Z,38.77
2023-05-05T19:54:16.464Z,38.90
2023-05-05T19:59:23.753Z,39.05
2023-05-05T20:04:31.129Z,39.20
2023-05-05T20:09:38.785Z,39.33
2023-05-05T20:14:46.293Z,39.43
2023-05-05T20:19:54.673Z,39.57
2023-05-05T20:25:02.106Z,39.67
2023-05-05T20:30:12.208Z,39.78
2023-05-05T20:35:19.749Z,39.90
2023-05-05T20:40:27.194Z,40.01
2023-05-05T20:45:35.168Z,40.12
2023-05-05T20:50:43.146Z,40.21
2023-05-05T20:55:50.998Z,40.28
2023-05-05T21:00:58.312Z,40.38
2023-05-05T21:06:05.982Z,40.46
2023-05-05T21:11:14.060Z,40.56
2023-05-05T21:16:21.526Z,40.68
2023-05-05T21:21:29.020Z,40.77
2023-05-05T21:26:36.244Z,40.86
2023-05-05T21:31:43.763Z,40.95
2023-05-05T21:36:51.827Z,41.01
2023-05-05T21:41:59.090Z,41.11
2023-05-05T21:47:07.230Z,41.21
2023-05-05T21:52:15.076Z,41.31
2023-05-05T21:57:22.355Z,41.41
2023-05-05T22:02:29.762Z,41.52
2023-05-05T22:07:37.547Z,41.61
2023-05-05T22:12:44.817Z,41.70
2023-05-05T22:17:52.363Z,41.79
2023-05-05T22:23:00.165Z,41.90
2023-05-05T22:28:07.801Z,42.00
2023-05-05T22:33:15.127Z,42.12
2023-05-05T22:38:22.288Z,42.23
2023-05-05T22:43:29.433Z,42.36
2023-05-05T22:48:36.875Z,42.46
2023-05-05T22:53:44.260Z,42.57
2023-05-05T22:58:51.553Z,42.64
2023-05-05T23:03:59.099Z,42.70
2023-05-05T23:09:06.248Z,42.78
2023-05-05T23:14:13.710Z,42.88
2023-05-05T23:19:21.636Z,42.95
2023-05-05T23:24:29.005Z,43.02
2023-05-05T23:29:36.265Z,43.14
2023-05-05T23:34:43.527Z,43.23
2023-05-05T23:39:50.736Z,43.31
2023-05-05T23:44:58.078Z,43.39
2023-05-05T23:50:06.113Z,43.51
2023-05-05T23:55:14.895Z,43.62
